الصفحة الرئيسية
METAR-TAF:

METAR-TAF

مطار :

تومسك, روسيا

دائرة عرض: 56-23-12N, خط طول: 085-12-38E, ارتفاع: 182 متر

مراقبة الطقس الحالي

تاريخ ووقت الإصدار 21 دقيقة قبل الساعة 21:30UTC
ريح 12 عقدة من الجنوب/الجنوب الغربي
درجة الحرارة -15°درجة مئوية
الرطوبة 78%
ضغط 1029 hPa
الرؤية: 3600 متر
غيوم متفرقة على ارتفاع 3300 قدم, مزنة ركامية.
غيوم مفككة على ارتفاع 4300 قدم
زخات ثلجية خفيفة

METAR: UNTT 182130Z 21006MPS 3600 -SHSN SCT033CB BKN043 M15/M18 Q1029 R21/490240 NOSIG RMK QFE757

زمن: 04:51 (21:51 UTC)

توقعات

تاريخ ووقت الإصدار 1ساعة و 51 دقيقة قبل الساعة 20:00UTC
التوقعات صالحة من18 الساعة 21 UTC إلى 19 الساعة 06 UTC
ريح 12 عقدة من الجنوب/الجنوب الغربي تتزايد حتى 21 عقدة
الرؤية: 3100 متر
غيوم متفرقة على ارتفاع 1100 قدم
غيوم متفرقة على ارتفاع 2000 قدم, مزنة ركامية.
زخات ثلجية خفيفة
مؤقت
من 18 الساعة 21 UTC إلى 19 الساعة 06 UTC
الرؤية: 1200 متر
غيوم متفرقة على ارتفاع 400 قدم
غيوم مفككة على ارتفاع 1700 قدم, مزنة ركامية.
زخات ثلجية

TAF: UNTT 182000Z 1821/1906 21006G11MPS 3100 -SHSN SCT011 SCT020CB TEMPO 1821/1906 1200 SHSN SCT004 BKN017CB

أرصاد الطقس والتوقعات من أكثر من 4000 مطار (تقارير الطقس للمطار METAR والتنبؤ بالطقس بالمطارTAF).

المحطات المتاحة هي النقط الصفراء والحمراء على الخريطة.

حرك المؤشر فوق النقطة لمعرفة اسم المحطة.

ثم انقر لمعرفة أرصاد وتوقعات الطقس.

لتغيير الخارطة: اضغط على الأزرار الخضراء مع رمز الصليب الأسود للتكبير. على الزر الأخضر مع شرطة للتصغير، أو على الأسهم الخضراء للخرائط المجاورة.


METAR-TAF: